createdAt,value
2018-09-29T00:00:14.825Z,13.68
2018-09-29T00:01:14.806Z,13.63
2018-09-29T00:02:14.782Z,13.68
2018-09-29T00:03:14.694Z,13.68
2018-09-29T00:04:14.534Z,13.63
2018-09-29T00:05:14.545Z,13.65
2018-09-29T00:06:14.272Z,13.57
2018-09-29T00:07:14.269Z,13.59
2018-09-29T00:08:14.767Z,13.56
2018-09-29T00:09:14.544Z,13.65
2018-09-29T00:10:14.881Z,13.71
2018-09-29T00:11:14.763Z,13.6
2018-09-29T00:12:14.490Z,13.74
2018-09-29T00:13:14.227Z,13.57
2018-09-29T00:14:14.725Z,13.63
2018-09-29T00:15:14.902Z,13.56
2018-09-29T00:16:14.464Z,13.54
2018-09-29T00:17:14.462Z,13.59
2018-09-29T00:18:14.467Z,13.62
2018-09-29T00:19:14.795Z,13.57
2018-09-29T00:20:14.418Z,13.56
2018-09-29T00:21:14.470Z,13.54
2018-09-29T00:22:14.458Z,13.56
2018-09-29T00:23:14.728Z,13.56
2018-09-29T00:24:14.463Z,13.57
2018-09-29T00:25:14.999Z,13.56
2018-09-29T00:26:14.468Z,13.56
2018-09-29T00:27:14.457Z,13.56
2018-09-29T00:28:14.720Z,13.65
2018-09-29T00:29:14.947Z,13.6
2018-09-29T00:30:14.744Z,13.63
2018-09-29T00:31:14.704Z,13.72
2018-09-29T00:32:14.713Z,13.57
2018-09-29T00:33:14.440Z,13.56
2018-09-29T00:34:14.443Z,13.57
2018-09-29T00:35:14.405Z,13.54
2018-09-29T00:36:14.186Z,13.67
2018-09-29T00:37:14.694Z,13.62
2018-09-29T00:38:14.444Z,13.56
2018-09-29T00:39:14.171Z,13.62
2018-09-29T00:40:14.744Z,13.5
2018-09-29T00:41:14.683Z,13.59
2018-09-29T00:42:14.676Z,13.57
2018-09-29T00:43:14.409Z,13.54
2018-09-29T00:44:14.678Z,13.57
2018-09-29T00:45:14.853Z,13.65
2018-09-29T00:46:14.159Z,13.54
2018-09-29T00:47:14.405Z,13.56
2018-09-29T00:48:14.148Z,13.6
2018-09-29T00:49:14.407Z,13.59
2018-09-29T00:50:14.589Z,13.62
2018-09-29T00:51:14.649Z,13.56
2018-09-29T00:52:14.681Z,13.54
2018-09-29T00:53:14.650Z,13.71
2018-09-29T00:54:14.153Z,13.71
2018-09-29T00:55:14.954Z,13.72
2018-09-29T00:56:14.119Z,13.68
2018-09-29T00:57:14.386Z,13.75
2018-09-29T00:58:14.136Z,13.72
2018-09-29T00:59:14.385Z,13.7
2018-09-29T01:00:14.220Z,13.83
2018-09-29T01:01:14.139Z,13.85
2018-09-29T01:02:14.103Z,13.85
2018-09-29T01:03:14.360Z,13.81
2018-09-29T01:04:14.615Z,13.78
2018-09-29T01:05:14.897Z,13.85
2018-09-29T01:06:14.609Z,13.74
2018-09-29T01:07:14.390Z,13.65
2018-09-29T01:08:14.600Z,13.7
2018-09-29T01:09:14.352Z,13.63
2018-09-29T01:10:14.212Z,13.57
2018-09-29T01:11:14.592Z,13.6
2018-09-29T01:12:14.587Z,13.59
2018-09-29T01:13:14.593Z,13.53
2018-09-29T01:14:14.593Z,13.6
2018-09-29T01:15:14.458Z,13.53
2018-09-29T01:16:14.586Z,13.54
2018-09-29T01:17:14.589Z,13.56
2018-09-29T01:18:14.576Z,13.54
2018-09-29T01:19:14.313Z,13.47
2018-09-29T01:20:14.417Z,13.46
2018-09-29T01:21:14.581Z,13.46
2018-09-29T01:22:14.071Z,13.41
2018-09-29T01:23:14.309Z,13.39
2018-09-29T01:24:14.310Z,13.31
2018-09-29T01:25:14.415Z,13.35
2018-09-29T01:26:14.562Z,13.3
2018-09-29T01:27:14.301Z,13.28
2018-09-29T01:28:14.552Z,13.3
2018-09-29T01:29:14.549Z,13.25
2018-09-29T01:30:14.564Z,13.18
2018-09-29T01:31:14.301Z,13.2
2018-09-29T01:32:14.544Z,13.2
2018-09-29T01:33:14.552Z,13.13
2018-09-29T01:34:14.549Z,13.23
2018-09-29T01:35:14.348Z,13.08
2018-09-29T01:36:14.540Z,13.04
2018-09-29T01:37:14.278Z,13.03
2018-09-29T01:38:14.288Z,13.04
2018-09-29T01:39:14.263Z,13.05
2018-09-29T01:40:14.602Z,13.03
2018-09-29T01:41:14.261Z,13.08
2018-09-29T01:42:14.522Z,13
2018-09-29T01:43:14.263Z,13.03
2018-09-29T01:44:14.506Z,13.01
2018-09-29T01:45:14.377Z,13.01
2018-09-29T01:46:14.497Z,12.98
2018-09-29T01:47:14.248Z,12.98
2018-09-29T01:48:14.489Z,12.97
2018-09-29T01:49:14.491Z,12.95
2018-09-29T01:50:14.682Z,12.87
2018-09-29T01:51:13.969Z,12.93
2018-09-29T01:52:14.266Z,12.91
2018-09-29T01:53:14.487Z,12.94
2018-09-29T01:54:14.225Z,12.98
2018-09-29T01:55:14.385Z,12.9
2018-09-29T01:56:14.212Z,12.85
2018-09-29T01:57:14.218Z,12.8
2018-09-29T01:58:14.204Z,12.8
2018-09-29T01:59:13.948Z,12.75
2018-09-29T02:00:14.623Z,12.75
2018-09-29T02:01:14.443Z,12.7
2018-09-29T02:02:14.183Z,12.68
2018-09-29T02:03:13.946Z,12.64
2018-09-29T02:04:14.435Z,12.7
2018-09-29T02:05:14.279Z,12.65
2018-09-29T02:06:14.177Z,12.61
2018-09-29T02:07:14.433Z,12.65
2018-09-29T02:08:14.176Z,12.57
2018-09-29T02:09:13.927Z,12.49
2018-09-29T02:10:14.258Z,12.47
2018-09-29T02:11:14.411Z,12.47
2018-09-29T02:12:14.983Z,12.45
2018-09-29T02:13:14.412Z,12.37
2018-09-29T02:14:14.150Z,12.25
2018-09-29T02:15:14.657Z,12.35
2018-09-29T02:16:14.142Z,12.15
2018-09-29T02:17:14.136Z,12.28
2018-09-29T02:18:14.391Z,12.24
2018-09-29T02:19:14.138Z,12.17
2018-09-29T02:20:14.231Z,12.07
2018-09-29T02:21:14.142Z,12.02
2018-09-29T02:22:14.383Z,12.02
2018-09-29T02:23:14.372Z,12.13
2018-09-29T02:24:14.119Z,12.15
2018-09-29T02:25:14.592Z,12.12
2018-09-29T02:26:14.111Z,11.99
2018-09-29T02:27:14.105Z,12.04
2018-09-29T02:28:14.366Z,12
2018-09-29T02:29:13.851Z,11.86
2018-09-29T02:30:14.400Z,11.97
2018-09-29T02:31:14.103Z,11.88
2018-09-29T02:32:13.833Z,11.86
2018-09-29T02:33:14.357Z,11.84
2018-09-29T02:34:14.340Z,11.84
2018-09-29T02:35:14.616Z,11.77
2018-09-29T02:36:14.331Z,11.7
2018-09-29T02:37:14.333Z,11.77
2018-09-29T02:38:14.331Z,11.72
2018-09-29T02:39:14.332Z,11.73
2018-09-29T02:40:14.223Z,11.69
2018-09-29T02:41:14.307Z,11.75
2018-09-29T02:42:14.060Z,11.78
2018-09-29T02:43:13.785Z,11.83
2018-09-29T02:44:14.056Z,11.84
2018-09-29T02:45:14.123Z,11.77
2018-09-29T02:46:14.043Z,11.86
2018-09-29T02:47:14.292Z,11.77
2018-09-29T02:48:13.769Z,11.72
2018-09-29T02:49:14.280Z,11.54
2018-09-29T02:50:14.494Z,11.62
2018-09-29T02:51:14.027Z,11.4
2018-09-29T02:52:14.015Z,11.48
2018-09-29T02:53:14.435Z,11.45
2018-09-29T02:54:14.286Z,11.41
2018-09-29T02:55:13.882Z,11.41
2018-09-29T02:56:14.032Z,11.35
2018-09-29T02:57:13.728Z,11.29
2018-09-29T02:58:14.247Z,11.35
2018-09-29T02:59:14.243Z,11.3
2018-09-29T03:00:14.176Z,11.19
2018-09-29T03:01:13.991Z,11.14
2018-09-29T03:02:13.968Z,11.08
2018-09-29T03:03:14.219Z,11.14
2018-09-29T03:04:13.968Z,11.11
2018-09-29T03:05:14.093Z,11.08
2018-09-29T03:06:14.204Z,10.97
2018-09-29T03:07:14.088Z,10.93
2018-09-29T03:08:14.195Z,10.89
2018-09-29T03:09:14.192Z,10.82
2018-09-29T03:10:14.373Z,10.84
2018-09-29T03:11:13.940Z,10.87
2018-09-29T03:12:13.928Z,10.79
2018-09-29T03:13:14.199Z,10.84
2018-09-29T03:14:13.911Z,10.79
2018-09-29T03:15:14.340Z,10.84
2018-09-29T03:16:13.907Z,10.74
2018-09-29T03:17:14.193Z,10.74
2018-09-29T03:18:14.147Z,10.69
2018-09-29T03:19:14.351Z,10.74
2018-09-29T03:20:14.394Z,10.79
2018-09-29T03:21:14.139Z,10.75
2018-09-29T03:22:13.888Z,10.72
2018-09-29T03:23:14.167Z,10.72
2018-09-29T03:24:14.137Z,10.78
2018-09-29T03:25:14.423Z,10.72
2018-09-29T03:26:14.148Z,10.67
2018-09-29T03:27:13.865Z,10.61
2018-09-29T03:28:14.122Z,10.63
2018-09-29T03:29:14.114Z,10.63
2018-09-29T03:30:13.814Z,10.6
2018-09-29T03:31:14.116Z,10.56
2018-09-29T03:32:14.151Z,10.51
2018-09-29T03:33:13.843Z,10.54
2018-09-29T03:34:14.086Z,10.57
2018-09-29T03:35:14.271Z,10.59
2018-09-29T03:36:13.816Z,10.51
2018-09-29T03:37:13.811Z,10.46
2018-09-29T03:38:13.804Z,10.48
2018-09-29T03:39:14.060Z,10.54
2018-09-29T03:40:14.282Z,10.51
2018-09-29T03:41:14.059Z,10.57
2018-09-29T03:42:14.046Z,10.59
2018-09-29T03:43:13.797Z,10.46
2018-09-29T03:44:14.052Z,10.35
2018-09-29T03:45:14.001Z,10.38
2018-09-29T03:46:13.830Z,10.37
2018-09-29T03:47:13.770Z,10.33
2018-09-29T03:48:14.036Z,10.26
2018-09-29T03:49:13.769Z,10.23
2018-09-29T03:50:14.233Z,10.16
2018-09-29T03:51:13.757Z,10.16
2018-09-29T03:52:13.750Z,10.26
2018-09-29T03:53:13.742Z,10.09
2018-09-29T03:54:13.736Z,10.13
2018-09-29T03:55:13.742Z,10.19
2018-09-29T03:56:13.723Z,10.16
2018-09-29T03:57:14.002Z,10.1
2018-09-29T03:58:13.741Z,10.1
2018-09-29T03:59:13.451Z,10.09
2018-09-29T04:00:13.847Z,10.07
2018-09-29T04:01:13.711Z,10.09
2018-09-29T04:02:13.956Z,10.04
2018-09-29T04:03:13.967Z,10.01
2018-09-29T04:04:13.693Z,10.04
2018-09-29T04:05:14.159Z,10.13
2018-09-29T04:06:13.671Z,10.1
2018-09-29T04:07:13.664Z,10.05
2018-09-29T04:08:13.921Z,10.02
2018-09-29T04:09:13.673Z,10.15
2018-09-29T04:10:13.959Z,10.09
2018-09-29T04:11:13.904Z,10.23
2018-09-29T04:12:13.647Z,10.16
2018-09-29T04:13:13.959Z,10.17
2018-09-29T04:14:13.651Z,10.17
2018-09-29T04:15:13.473Z,10.15
2018-09-29T04:16:13.639Z,10.05
2018-09-29T04:17:13.371Z,10.13
2018-09-29T04:18:13.862Z,10.17
2018-09-29T04:19:13.853Z,10.22
2018-09-29T04:20:13.932Z,10.16
2018-09-29T04:21:13.600Z,10.13
2018-09-29T04:22:13.598Z,10.22
2018-09-29T04:23:13.584Z,10.16
2018-09-29T04:24:13.847Z,10.16
2018-09-29T04:25:13.656Z,10.2
2018-09-29T04:26:13.579Z,10.12
2018-09-29T04:27:13.823Z,10.2
2018-09-29T04:28:13.564Z,10.15
2018-09-29T04:29:13.560Z,10.09
2018-09-29T04:30:13.570Z,10.01
2018-09-29T04:31:13.548Z,10.07
2018-09-29T04:32:13.811Z,9.97
2018-09-29T04:33:13.290Z,9.97
2018-09-29T04:34:13.537Z,10.02
2018-09-29T04:35:13.665Z,10.01
2018-09-29T04:36:13.516Z,9.99
2018-09-29T04:37:13.768Z,9.99
2018-09-29T04:38:13.761Z,9.97
2018-09-29T04:39:13.510Z,10.05
2018-09-29T04:40:13.793Z,9.95
2018-09-29T04:41:13.242Z,9.95
2018-09-29T04:42:13.738Z,10.02
2018-09-29T04:43:13.980Z,10.04
2018-09-29T04:44:13.739Z,10.02
2018-09-29T04:45:13.498Z,10.01
2018-09-29T04:46:13.466Z,10.02
2018-09-29T04:47:13.723Z,9.91
2018-09-29T04:48:13.458Z,9.92
2018-09-29T04:49:13.986Z,9.91
2018-09-29T04:50:13.229Z,9.92
2018-09-29T04:51:13.694Z,9.87
2018-09-29T04:52:13.446Z,9.89
2018-09-29T04:53:13.431Z,9.87
2018-09-29T04:54:13.427Z,9.89
2018-09-29T04:55:13.472Z,9.89
2018-09-29T04:56:13.443Z,9.91
2018-09-29T04:57:13.425Z,9.97
2018-09-29T04:58:13.415Z,10.02
2018-09-29T04:59:13.411Z,9.98
2018-09-29T05:00:13.541Z,9.97
2018-09-29T05:01:13.141Z,9.94
2018-09-29T05:02:13.652Z,10.05
2018-09-29T05:03:13.392Z,10.07
2018-09-29T05:04:13.629Z,10.09
2018-09-29T05:05:13.695Z,10.02
2018-09-29T05:06:13.367Z,10.02
2018-09-29T05:07:13.626Z,10.01
2018-09-29T05:08:13.356Z,9.86
2018-09-29T05:09:13.612Z,9.87
2018-09-29T05:10:13.102Z,9.92
2018-09-29T05:11:13.612Z,9.89
2018-09-29T05:12:13.608Z,9.74
2018-09-29T05:13:13.584Z,9.76
2018-09-29T05:14:13.341Z,9.73
2018-09-29T05:15:13.659Z,9.72
2018-09-29T05:16:13.572Z,9.65
2018-09-29T05:17:13.567Z,9.64
2018-09-29T05:18:13.556Z,9.62
2018-09-29T05:19:13.302Z,9.59
2018-09-29T05:20:13.623Z,9.55
2018-09-29T05:21:13.539Z,9.55
2018-09-29T05:22:13.593Z,9.47
2018-09-29T05:23:13.646Z,9.44
2018-09-29T05:24:13.529Z,9.37
2018-09-29T05:25:13.596Z,9.47
2018-09-29T05:26:13.520Z,9.41
2018-09-29T05:27:13.006Z,9.34
2018-09-29T05:28:13.513Z,9.34
2018-09-29T05:29:13.257Z,9.32
2018-09-29T05:30:13.588Z,9.28
2018-09-29T05:31:13.503Z,9.26
2018-09-29T05:32:13.492Z,9.39
2018-09-29T05:33:13.242Z,9.36
2018-09-29T05:34:13.522Z,9.29
2018-09-29T05:35:13.524Z,9.32
2018-09-29T05:36:13.469Z,9.36
2018-09-29T05:37:13.210Z,9.31
2018-09-29T05:38:13.205Z,9.37
2018-09-29T05:39:13.462Z,9.44
2018-09-29T05:40:13.449Z,9.44
2018-09-29T05:41:12.939Z,9.4
2018-09-29T05:42:12.927Z,9.44
2018-09-29T05:43:13.485Z,9.58
2018-09-29T05:44:13.433Z,9.62
2018-09-29T05:45:12.942Z,9.54
2018-09-29T05:46:13.165Z,9.55
2018-09-29T05:47:13.165Z,9.62
2018-09-29T05:48:13.447Z,9.58
2018-09-29T05:49:13.148Z,9.61
2018-09-29T05:50:13.353Z,9.59
2018-09-29T05:51:12.886Z,9.69
2018-09-29T05:52:13.395Z,9.82
2018-09-29T05:53:12.874Z,9.77
2018-09-29T05:54:13.114Z,9.84
2018-09-29T05:55:13.176Z,9.87
2018-09-29T05:56:13.117Z,9.87
2018-09-29T05:57:13.363Z,9.84
2018-09-29T05:58:13.107Z,9.97
2018-09-29T05:59:13.363Z,10.05
2018-09-29T06:00:13.306Z,10.01
2018-09-29T06:01:13.362Z,9.94
2018-09-29T06:02:13.078Z,9.97
2018-09-29T06:03:13.078Z,9.86
2018-09-29T06:04:13.328Z,9.86
2018-09-29T06:05:13.119Z,9.97
2018-09-29T06:06:13.345Z,10.01
2018-09-29T06:07:13.657Z,10.01
2018-09-29T06:08:13.373Z,10.02
2018-09-29T06:09:13.055Z,9.97
2018-09-29T06:10:13.449Z,10.04
2018-09-29T06:11:13.031Z,10.01
2018-09-29T06:12:13.288Z,10.17
2018-09-29T06:13:13.412Z,10.09
2018-09-29T06:14:13.318Z,10.19
2018-09-29T06:15:13.056Z,10.17
2018-09-29T06:16:13.020Z,10.22
2018-09-29T06:17:13.277Z,10.3
2018-09-29T06:18:13.318Z,10.33
2018-09-29T06:19:13.261Z,10.34
2018-09-29T06:20:13.172Z,10.42
2018-09-29T06:21:12.731Z,10.41
2018-09-29T06:22:12.726Z,10.37
2018-09-29T06:23:12.721Z,10.4
2018-09-29T06:24:13.421Z,10.37
2018-09-29T06:25:13.134Z,10.51
2018-09-29T06:26:12.982Z,10.53
2018-09-29T06:27:12.980Z,10.61
2018-09-29T06:28:12.960Z,10.76
2018-09-29T06:29:12.965Z,10.76
2018-09-29T06:30:13.458Z,10.74
2018-09-29T06:31:12.949Z,10.79
2018-09-29T06:32:12.933Z,10.93
2018-09-29T06:33:12.955Z,10.93
2018-09-29T06:34:13.053Z,10.97
2018-09-29T06:35:13.017Z,11.12
2018-09-29T06:36:12.929Z,11.17
2018-09-29T06:37:13.187Z,11.18
2018-09-29T06:38:12.945Z,11.18
2018-09-29T06:39:12.916Z,11.26
2018-09-29T06:40:13.333Z,11.15
2018-09-29T06:41:13.157Z,11.27
2018-09-29T06:42:12.928Z,11.3
2018-09-29T06:43:13.151Z,11.36
2018-09-29T06:44:12.642Z,11.32
2018-09-29T06:45:13.341Z,11.32
2018-09-29T06:46:12.904Z,11.32
2018-09-29T06:47:13.135Z,11.27
2018-09-29T06:48:13.015Z,11.22
2018-09-29T06:49:13.126Z,11.19
2018-09-29T06:50:13.052Z,11.29
2018-09-29T06:51:13.093Z,11.29
2018-09-29T06:52:13.095Z,11.3
2018-09-29T06:53:12.577Z,11.27
2018-09-29T06:54:12.582Z,11.25
2018-09-29T06:55:12.941Z,11.44
2018-09-29T06:56:12.837Z,11.45
2018-09-29T06:57:13.100Z,11.47
2018-09-29T06:58:12.834Z,11.37
2018-09-29T06:59:13.103Z,11.41
2018-09-29T07:00:12.980Z,11.51
2018-09-29T07:01:12.822Z,11.62
2018-09-29T07:02:12.577Z,11.87
2018-09-29T07:03:12.923Z,12.36
2018-09-29T07:04:13.075Z,12.86
2018-09-29T07:05:12.721Z,13.5
2018-09-29T07:06:12.807Z,14.08
2018-09-29T07:07:12.807Z,14.2
2018-09-29T07:08:12.807Z,14.5
2018-09-29T07:09:12.809Z,14.79
2018-09-29T07:10:13.162Z,15.25
2018-09-29T07:11:12.543Z,15.57
2018-09-29T07:12:12.843Z,15.62
2018-09-29T07:13:13.081Z,15.82
2018-09-29T07:14:13.043Z,16.08
2018-09-29T07:15:13.320Z,16.16
2018-09-29T07:16:13.044Z,16.41
2018-09-29T07:17:12.790Z,16.33
2018-09-29T07:18:13.047Z,16.26
2018-09-29T07:19:12.795Z,16.41
2018-09-29T07:20:12.795Z,16.6
2018-09-29T07:21:13.059Z,16.78
2018-09-29T07:22:12.814Z,16.97
2018-09-29T07:23:13.049Z,16.93
2018-09-29T07:24:12.536Z,17.05
2018-09-29T07:25:13.085Z,17.14
2018-09-29T07:26:12.805Z,17.36
2018-09-29T07:27:13.086Z,17.78
2018-09-29T07:28:13.051Z,17.94
2018-09-29T07:29:13.056Z,18.31
2018-09-29T07:30:13.332Z,18.65
2018-09-29T07:31:13.066Z,18.7
2018-09-29T07:32:12.807Z,18.98
2018-09-29T07:33:20.036Z,19.18
2018-09-29T07:34:12.801Z,19.22
2018-09-29T07:35:12.983Z,19.21
2018-09-29T07:36:12.571Z,19.29
2018-09-29T07:37:13.081Z,19.34
2018-09-29T07:38:13.068Z,19
2018-09-29T07:39:12.819Z,18.78
2018-09-29T07:40:12.970Z,18.53
2018-09-29T07:41:13.073Z,18.35
2018-09-29T07:42:12.827Z,18.44
2018-09-29T07:43:13.090Z,18.56
2018-09-29T07:44:12.841Z,18.34
2018-09-29T07:45:12.879Z,18.37
2018-09-29T07:46:12.830Z,18.16
2018-09-29T07:47:13.093Z,17.71
2018-09-29T07:48:12.828Z,17.57
2018-09-29T07:49:12.655Z,17.31
2018-09-29T07:50:13.027Z,17.51
2018-09-29T07:51:12.841Z,17.79
2018-09-29T07:52:12.866Z,17.85
2018-09-29T07:53:12.858Z,17.57
2018-09-29T07:54:12.616Z,17.36
2018-09-29T07:55:12.904Z,17.48
2018-09-29T07:56:12.913Z,17.67
2018-09-29T07:57:13.108Z,18.07
2018-09-29T07:58:13.115Z,18.58
2018-09-29T07:59:12.592Z,18.73
2018-09-29T08:00:20.272Z,18.63
2018-09-29T08:01:12.907Z,18.53
2018-09-29T08:02:13.117Z,18.45
2018-09-29T08:03:13.124Z,18.45
2018-09-29T08:04:12.609Z,18.41
2018-09-29T08:05:13.202Z,18.35
2018-09-29T08:06:13.138Z,17.94
2018-09-29T08:07:12.892Z,17.34
2018-09-29T08:08:13.127Z,16.84
2018-09-29T08:09:13.121Z,16.35
2018-09-29T08:10:12.770Z,16
2018-09-29T08:11:12.905Z,15.76
2018-09-29T08:12:12.894Z,15.65
2018-09-29T08:13:12.887Z,15.47
2018-09-29T08:14:13.174Z,15.4
2018-09-29T08:15:13.313Z,15.14
2018-09-29T08:16:13.149Z,15.09
2018-09-29T08:17:12.632Z,14.96
2018-09-29T08:18:13.142Z,14.89
2018-09-29T08:19:12.891Z,14.58
2018-09-29T08:20:13.268Z,14.51
2018-09-29T08:21:12.895Z,14.29
2018-09-29T08:22:13.172Z,14.04
2018-09-29T08:23:12.897Z,13.79
2018-09-29T08:24:13.328Z,13.54
2018-09-29T08:25:13.018Z,13.47
2018-09-29T08:26:12.664Z,13.41
2018-09-29T08:27:12.892Z,13.42
2018-09-29T08:28:12.887Z,13.49
2018-09-29T08:29:13.156Z,13.46
2018-09-29T08:30:13.001Z,13.54
2018-09-29T08:31:13.176Z,13.53
2018-09-29T08:32:12.944Z,13.6
2018-09-29T08:33:12.933Z,13.6
2018-09-29T08:34:12.887Z,13.65
2018-09-29T08:35:13.508Z,13.79
2018-09-29T08:36:12.899Z,13.77
2018-09-29T08:37:12.893Z,13.79
2018-09-29T08:38:12.903Z,13.81
2018-09-29T08:39:13.147Z,13.83
2018-09-29T08:40:12.939Z,13.89
2018-09-29T08:41:13.152Z,13.81
2018-09-29T08:42:12.877Z,13.85
2018-09-29T08:43:12.878Z,13.7
2018-09-29T08:44:12.906Z,13.71
2018-09-29T08:45:12.961Z,13.44
2018-09-29T08:46:13.126Z,13.5
2018-09-29T08:47:13.126Z,13.42
2018-09-29T08:48:12.867Z,13.52
2018-09-29T08:49:12.872Z,13.59
2018-09-29T08:50:13.266Z,13.63
2018-09-29T08:51:12.858Z,13.65
2018-09-29T08:52:13.108Z,13.79
2018-09-29T08:53:13.312Z,13.92
2018-09-29T08:54:12.865Z,13.95
2018-09-29T08:55:12.944Z,13.95
2018-09-29T08:56:12.860Z,13.85
2018-09-29T08:57:13.112Z,13.86
2018-09-29T08:58:13.125Z,13.85
2018-09-29T08:59:13.126Z,14.04
2018-09-29T09:00:12.976Z,14.15
2018-09-29T09:01:12.605Z,14.35
2018-09-29T09:02:13.107Z,14.36
2018-09-29T09:03:12.849Z,14.37
2018-09-29T09:04:13.312Z,14.37
2018-09-29T09:05:13.105Z,14.35
2018-09-29T09:06:13.140Z,14.26
2018-09-29T09:07:13.101Z,14.12
2018-09-29T09:08:12.856Z,14.03
2018-09-29T09:09:12.881Z,14.07
2018-09-29T09:10:12.717Z,14.23
2018-09-29T09:11:12.825Z,14.35
2018-09-29T09:12:13.141Z,14.36
2018-09-29T09:13:12.823Z,14.43
2018-09-29T09:14:12.845Z,14.33
2018-09-29T09:15:13.245Z,14.33
2018-09-29T09:16:13.060Z,14.4
2018-09-29T09:17:13.051Z,14.5
2018-09-29T09:18:12.845Z,14.51
2018-09-29T09:19:12.879Z,14.6
2018-09-29T09:20:13.115Z,14.66
2018-09-29T09:21:12.828Z,14.81
2018-09-29T09:22:12.812Z,14.86
2018-09-29T09:23:12.671Z,15
2018-09-29T09:24:13.218Z,15.04
2018-09-29T09:25:12.886Z,15.25
2018-09-29T09:26:12.816Z,15.27
2018-09-29T09:27:12.801Z,15.25
2018-09-29T09:28:13.065Z,15.37
2018-09-29T09:29:12.802Z,15.33
2018-09-29T09:30:13.338Z,15.24
2018-09-29T09:31:13.068Z,15.03
2018-09-29T09:32:13.053Z,14.91
2018-09-29T09:33:13.053Z,14.7
2018-09-29T09:34:13.053Z,14.66
2018-09-29T09:35:12.686Z,14.65
2018-09-29T09:36:12.540Z,14.62
2018-09-29T09:37:12.789Z,14.59
2018-09-29T09:38:12.779Z,14.66
2018-09-29T09:39:12.810Z,14.78
2018-09-29T09:40:13.022Z,14.81
2018-09-29T09:41:13.121Z,14.73
2018-09-29T09:42:13.028Z,14.78
2018-09-29T09:43:12.782Z,14.69
2018-09-29T09:44:13.038Z,14.69
2018-09-29T09:45:13.169Z,14.63
2018-09-29T09:46:12.769Z,14.6
2018-09-29T09:47:13.026Z,14.53
2018-09-29T09:48:13.020Z,14.58
2018-09-29T09:49:13.020Z,14.58
2018-09-29T09:50:13.131Z,14.51
2018-09-29T09:51:13.021Z,14.53
2018-09-29T09:52:13.015Z,14.58
2018-09-29T09:53:12.502Z,14.58
2018-09-29T09:54:13.021Z,14.65
2018-09-29T09:55:13.075Z,14.82
2018-09-29T09:56:13.340Z,14.85
2018-09-29T09:57:21.299Z,14.88
2018-09-29T09:58:12.758Z,14.92
2018-09-29T09:59:12.766Z,14.97
2018-09-29T10:00:13.264Z,14.91
2018-09-29T10:01:12.996Z,15
2018-09-29T10:02:12.751Z,14.94
2018-09-29T10:03:12.738Z,14.94
2018-09-29T10:04:12.495Z,14.91
2018-09-29T10:05:13.276Z,14.96
2018-09-29T10:06:13.000Z,14.94
2018-09-29T10:07:12.737Z,14.92
2018-09-29T10:08:12.984Z,14.96
2018-09-29T10:09:12.778Z,14.88
2018-09-29T10:10:12.940Z,14.94
2018-09-29T10:11:12.538Z,15
2018-09-29T10:12:12.559Z,15.06
2018-09-29T10:13:12.982Z,15.03
2018-09-29T10:14:13.017Z,15.15
2018-09-29T10:15:12.882Z,15.18
2018-09-29T10:16:12.977Z,15.22
2018-09-29T10:17:12.980Z,15.25
2018-09-29T10:18:12.742Z,15.25
2018-09-29T10:19:13.364Z,15.35
2018-09-29T10:20:12.788Z,15.27
2018-09-29T10:21:12.971Z,15.28
2018-09-29T10:22:12.972Z,15.31
2018-09-29T10:23:12.711Z,15.35
2018-09-29T10:24:12.458Z,15.35
2018-09-29T10:25:12.812Z,15.18
2018-09-29T10:26:12.747Z,15.19
2018-09-29T10:27:12.973Z,15.21
2018-09-29T10:28:12.973Z,15.24
2018-09-29T10:29:12.709Z,15.21
2018-09-29T10:30:12.861Z,15.22
2018-09-29T10:31:12.700Z,15.24
2018-09-29T10:32:12.692Z,15.33
2018-09-29T10:33:12.962Z,15.43
2018-09-29T10:34:12.944Z,15.54
2018-09-29T10:35:12.825Z,15.54
2018-09-29T10:36:12.776Z,15.51
2018-09-29T10:37:12.701Z,15.51
2018-09-29T10:38:12.688Z,15.52
2018-09-29T10:39:12.691Z,15.55
2018-09-29T10:40:13.123Z,15.57
2018-09-29T10:41:12.697Z,15.62
2018-09-29T10:42:12.937Z,15.64
2018-09-29T10:43:12.939Z,15.58
2018-09-29T10:44:12.812Z,15.75
2018-09-29T10:45:12.984Z,15.75
2018-09-29T10:46:12.738Z,15.7
2018-09-29T10:47:12.426Z,15.8
2018-09-29T10:48:12.990Z,15.77
2018-09-29T10:49:12.991Z,15.7
2018-09-29T10:50:13.128Z,15.65
2018-09-29T10:51:12.660Z,15.7
2018-09-29T10:52:12.919Z,15.58
2018-09-29T10:53:12.919Z,15.72
2018-09-29T10:54:12.923Z,15.92
2018-09-29T10:55:12.821Z,15.94
2018-09-29T10:56:12.919Z,15.92
2018-09-29T10:57:12.398Z,15.84
2018-09-29T10:58:12.908Z,15.88
2018-09-29T10:59:12.870Z,15.83
2018-09-29T11:00:12.635Z,16
2018-09-29T11:01:12.907Z,16.05
2018-09-29T11:02:12.655Z,16.09
2018-09-29T11:03:12.394Z,16.08
2018-09-29T11:04:12.645Z,16.17
2018-09-29T11:05:12.642Z,16.24
2018-09-29T11:06:12.642Z,16.29
2018-09-29T11:07:12.897Z,16.41
2018-09-29T11:08:12.902Z,16.28
2018-09-29T11:09:12.643Z,16.35
2018-09-29T11:10:12.746Z,16.29
2018-09-29T11:11:12.393Z,16.39
2018-09-29T11:12:12.660Z,16.42
2018-09-29T11:13:12.907Z,16.36
2018-09-29T11:14:12.689Z,16.54
2018-09-29T11:15:12.583Z,16.66
2018-09-29T11:16:12.890Z,16.58
2018-09-29T11:17:12.632Z,16.5
2018-09-29T11:18:12.883Z,16.38
2018-09-29T11:19:12.888Z,16.43
2018-09-29T11:20:12.955Z,16.46
2018-09-29T11:21:12.894Z,16.49
2018-09-29T11:22:12.632Z,16.58
2018-09-29T11:23:12.635Z,16.53
2018-09-29T11:24:12.615Z,16.53
2018-09-29T11:25:13.099Z,16.49
2018-09-29T11:26:12.875Z,16.46
2018-09-29T11:27:12.632Z,16.53
2018-09-29T11:28:13.236Z,16.47
2018-09-29T11:29:12.882Z,16.58
2018-09-29T11:30:12.625Z,16.58
2018-09-29T11:31:12.868Z,16.57
2018-09-29T11:32:12.361Z,16.66
2018-09-29T11:33:12.623Z,16.69
2018-09-29T11:34:12.873Z,16.75
2018-09-29T11:35:12.690Z,16.76
2018-09-29T11:36:12.868Z,16.71
2018-09-29T11:37:12.405Z,16.76
2018-09-29T11:38:12.872Z,16.79
2018-09-29T11:39:12.761Z,16.79
2018-09-29T11:40:12.929Z,16.75
2018-09-29T11:41:12.864Z,16.71
2018-09-29T11:42:12.877Z,16.75
2018-09-29T11:43:12.663Z,16.74
2018-09-29T11:44:12.858Z,16.79
2018-09-29T11:45:12.649Z,16.81
2018-09-29T11:46:12.867Z,16.87
2018-09-29T11:47:12.866Z,17.01
2018-09-29T11:48:12.598Z,16.94
2018-09-29T11:49:12.645Z,16.94
2018-09-29T11:50:12.618Z,17.05
2018-09-29T11:51:12.598Z,17.01
2018-09-29T11:52:12.848Z,17.15
2018-09-29T11:53:12.869Z,17.16
2018-09-29T11:54:12.703Z,17.15
2018-09-29T11:55:12.679Z,17.22
2018-09-29T11:56:13.148Z,17.12
2018-09-29T11:57:12.873Z,17.12
2018-09-29T11:58:12.598Z,17.12
2018-09-29T11:59:12.857Z,17.02
2018-09-29T12:00:12.905Z,16.94
2018-09-29T12:01:12.847Z,16.86
2018-09-29T12:02:13.087Z,16.93
2018-09-29T12:03:12.587Z,17.02
2018-09-29T12:04:12.863Z,17.19
2018-09-29T12:05:12.650Z,17.24
2018-09-29T12:06:13.007Z,17.2
2018-09-29T12:07:13.124Z,17.31
2018-09-29T12:08:12.948Z,17.36
2018-09-29T12:09:12.854Z,17.33
2018-09-29T12:10:12.746Z,17.31
2018-09-29T12:11:12.863Z,17.11
2018-09-29T12:12:12.854Z,17.12
2018-09-29T12:13:12.587Z,17.08
2018-09-29T12:14:12.860Z,17.09
2018-09-29T12:15:12.678Z,17.09
2018-09-29T12:16:12.587Z,17.16
2018-09-29T12:17:12.584Z,17.14
2018-09-29T12:18:12.592Z,17.22
2018-09-29T12:19:12.856Z,17.31
2018-09-29T12:20:13.087Z,17.26
2018-09-29T12:21:12.635Z,17.29
2018-09-29T12:22:12.973Z,17.33
2018-09-29T12:23:12.340Z,17.42
2018-09-29T12:24:12.849Z,17.41
2018-09-29T12:25:12.800Z,17.36
2018-09-29T12:26:12.851Z,17.41
2018-09-29T12:27:12.585Z,17.38
2018-09-29T12:28:12.840Z,17.34
2018-09-29T12:29:12.574Z,17.36
2018-09-29T12:30:12.869Z,17.3
2018-09-29T12:31:12.877Z,17.46
2018-09-29T12:32:12.839Z,17.3
2018-09-29T12:33:12.834Z,17.33
2018-09-29T12:34:12.853Z,17.39
2018-09-29T12:35:12.804Z,17.33
2018-09-29T12:36:12.578Z,17.34
2018-09-29T12:37:13.046Z,17.31
2018-09-29T12:38:12.840Z,17.38
2018-09-29T12:39:12.589Z,17.33
2018-09-29T12:40:12.850Z,17.31
2018-09-29T12:41:12.578Z,17.45
2018-09-29T12:42:12.320Z,17.68
2018-09-29T12:43:12.847Z,17.67
2018-09-29T12:44:12.961Z,17.74
2018-09-29T12:45:13.331Z,17.8
2018-09-29T12:46:12.824Z,17.92
2018-09-29T12:47:12.585Z,17.98
2018-09-29T12:48:12.323Z,17.94
2018-09-29T12:49:12.589Z,18.01
2018-09-29T12:50:12.768Z,17.94
2018-09-29T12:51:12.858Z,18.04
2018-09-29T12:52:12.824Z,18.05
2018-09-29T12:53:12.822Z,17.98
2018-09-29T12:54:13.381Z,17.98
2018-09-29T12:55:12.479Z,17.9
2018-09-29T12:56:12.561Z,18.01
2018-09-29T12:57:12.825Z,17.92